sensor_id;sensor_type;location;lat;lon;timestamp;pressure;altitude;pressure_sealevel;temperature;humidity
4415;BME280;2220;42.670;23.398;2023-02-01T00:01:37;94586.03;;;1.93;100.00
4415;BME280;2220;42.670;23.398;2023-02-01T00:04:03;94576.78;;;1.86;100.00
4415;BME280;2220;42.670;23.398;2023-02-01T00:06:28;94576.78;;;1.86;100.00
4415;BME280;2220;42.670;23.398;2023-02-01T00:08:54;94583.09;;;1.83;100.00
4415;BME280;2220;42.670;23.398;2023-02-01T00:11:21;94591.00;;;1.82;100.00
4415;BME280;2220;42.670;23.398;2023-02-01T00:13:47;94566.19;;;1.69;100.00
4415;BME280;2220;42.670;23.398;2023-02-01T00:16:26;94575.44;;;1.77;100.00
4415;BME280;2220;42.670;23.398;2023-02-01T00:19:17;94569.25;;;1.84;100.00
4415;BME280;2220;42.670;23.398;2023-02-01T00:21:42;94575.78;;;1.87;100.00
4415;BME280;2220;42.670;23.398;2023-02-01T00:24:10;94576.41;;;1.76;100.00
4415;BME280;2220;42.670;23.398;2023-02-01T00:26:40;94578.63;;;1.72;100.00
4415;BME280;2220;42.670;23.398;2023-02-01T00:29:11;94576.97;;;1.84;100.00
4415;BME280;2220;42.670;23.398;2023-02-01T00:31:37;94580.13;;;1.86;100.00
4415;BME280;2220;42.670;23.398;2023-02-01T00:34:03;94566.75;;;1.78;100.00
4415;BME280;2220;42.670;23.398;2023-02-01T00:36:29;94571.66;;;1.86;100.00
4415;BME280;2220;42.670;23.398;2023-02-01T00:38:55;94562.03;;;1.68;100.00
4415;BME280;2220;42.670;23.398;2023-02-01T00:41:21;94550.00;;;1.68;100.00
4415;BME280;2220;42.670;23.398;2023-02-01T00:43:48;94553.72;;;1.73;100.00
4415;BME280;2220;42.670;23.398;2023-02-01T00:46:15;94546.06;;;1.66;100.00
4415;BME280;2220;42.670;23.398;2023-02-01T00:48:41;94550.59;;;1.71;100.00
4415;BME280;2220;42.670;23.398;2023-02-01T00:51:09;94537.53;;;1.72;100.00
4415;BME280;2220;42.670;23.398;2023-02-01T00:53:36;94537.00;;;1.57;100.00
4415;BME280;2220;42.670;23.398;2023-02-01T00:56:02;94508.34;;;1.60;100.00
4415;BME280;2220;42.670;23.398;2023-02-01T00:58:27;94516.47;;;1.57;100.00
4415;BME280;2220;42.670;23.398;2023-02-01T01:03:29;94488.66;;;1.54;100.00
4415;BME280;2220;42.670;23.398;2023-02-01T01:05:58;94499.88;;;1.59;100.00
4415;BME280;2220;42.670;23.398;2023-02-01T01:08:24;94502.84;;;1.56;100.00
4415;BME280;2220;42.670;23.398;2023-02-01T01:10:49;94497.84;;;1.68;100.00
4415;BME280;2220;42.670;23.398;2023-02-01T01:13:15;94490.13;;;1.68;100.00
4415;BME280;2220;42.670;23.398;2023-02-01T01:15:41;94487.38;;;1.70;100.00
4415;BME280;2220;42.670;23.398;2023-02-01T01:18:07;94455.00;;;1.68;100.00
4415;BME280;2220;42.670;23.398;2023-02-01T01:20:38;94465.69;;;1.65;100.00
4415;BME280;2220;42.670;23.398;2023-02-01T01:23:04;94455.44;;;1.59;100.00
4415;BME280;2220;42.670;23.398;2023-02-01T01:25:30;94456.06;;;1.54;100.00
4415;BME280;2220;42.670;23.398;2023-02-01T01:27:56;94455.81;;;1.69;100.00
4415;BME280;2220;42.670;23.398;2023-02-01T01:30:21;94449.91;;;1.62;100.00
4415;BME280;2220;42.670;23.398;2023-02-01T01:32:47;94457.72;;;1.74;100.00
4415;BME280;2220;42.670;23.398;2023-02-01T01:35:13;94447.09;;;1.70;100.00
4415;BME280;2220;42.670;23.398;2023-02-01T01:37:38;94445.47;;;1.76;100.00
4415;BME280;2220;42.670;23.398;2023-02-01T01:40:05;94448.03;;;1.76;100.00
4415;BME280;2220;42.670;23.398;2023-02-01T01:42:40;94440.94;;;1.78;100.00
4415;BME280;2220;42.670;23.398;2023-02-01T01:47:40;94422.88;;;1.84;100.00
4415;BME280;2220;42.670;23.398;2023-02-01T01:50:10;94420.56;;;1.76;100.00
4415;BME280;2220;42.670;23.398;2023-02-01T01:52:38;94420.91;;;1.86;100.00
4415;BME280;2220;42.670;23.398;2023-02-01T01:55:07;94411.63;;;1.85;100.00
4415;BME280;2220;42.670;23.398;2023-02-01T01:57:35;94397.34;;;1.64;100.00
4415;BME280;2220;42.670;23.398;2023-02-01T02:00:07;94395.25;;;1.55;100.00
4415;BME280;2220;42.670;23.398;2023-02-01T02:02:35;94402.38;;;1.53;100.00
4415;BME280;2220;42.670;23.398;2023-02-01T02:05:01;94388.94;;;1.51;100.00
4415;BME280;2220;42.670;23.398;2023-02-01T02:07:30;94395.88;;;1.50;100.00
4415;BME280;2220;42.670;23.398;2023-02-01T02:09:57;94386.88;;;1.34;100.00
4415;BME280;2220;42.670;23.398;2023-02-01T02:12:23;94385.88;;;1.35;100.00
4415;BME280;2220;42.670;23.398;2023-02-01T02:14:48;94386.31;;;1.32;100.00
4415;BME280;2220;42.670;23.398;2023-02-01T02:47:56;94378.78;;;1.06;100.00
4415;BME280;2220;42.670;23.398;2023-02-01T02:50:29;94371.81;;;1.13;100.00
4415;BME280;2220;42.670;23.398;2023-02-01T02:53:21;94362.97;;;1.09;100.00
4415;BME280;2220;42.670;23.398;2023-02-01T02:56:08;94391.94;;;1.16;100.00
4415;BME280;2220;42.670;23.398;2023-02-01T02:58:54;94371.22;;;1.11;100.00
4415;BME280;2220;42.670;23.398;2023-02-01T03:01:39;94381.25;;;1.19;100.00
4415;BME280;2220;42.670;23.398;2023-02-01T03:04:23;94389.38;;;1.16;100.00
4415;BME280;2220;42.670;23.398;2023-02-01T03:06:52;94393.72;;;1.16;100.00
4415;BME280;2220;42.670;23.398;2023-02-01T03:09:31;94398.16;;;1.33;100.00
4415;BME280;2220;42.670;23.398;2023-02-01T03:12:02;94398.41;;;1.19;100.00
4415;BME280;2220;42.670;23.398;2023-02-01T03:14:51;94406.72;;;1.21;100.00
4415;BME280;2220;42.670;23.398;2023-02-01T03:17:22;94387.59;;;1.10;100.00
4415;BME280;2220;42.670;23.398;2023-02-01T03:19:51;94399.81;;;1.21;100.00
4415;BME280;2220;42.670;23.398;2023-02-01T03:22:21;94384.97;;;1.23;100.00
4415;BME280;2220;42.670;23.398;2023-02-01T03:24:56;94386.19;;;1.21;100.00
4415;BME280;2220;42.670;23.398;2023-02-01T03:27:29;94386.56;;;1.24;100.00
4415;BME280;2220;42.670;23.398;2023-02-01T03:32:22;94376.63;;;1.34;100.00
4415;BME280;2220;42.670;23.398;2023-02-01T03:34:48;94378.78;;;1.37;100.00
4415;BME280;2220;42.670;23.398;2023-02-01T03:37:23;94375.22;;;1.38;100.00
4415;BME280;2220;42.670;23.398;2023-02-01T03:42:27;94376.78;;;1.39;100.00
4415;BME280;2220;42.670;23.398;2023-02-01T03:45:02;94367.63;;;1.50;100.00
4415;BME280;2220;42.670;23.398;2023-02-01T03:47:30;94363.28;;;1.51;100.00
4415;BME280;2220;42.670;23.398;2023-02-01T03:50:06;94362.72;;;1.49;100.00
4415;BME280;2220;42.670;23.398;2023-02-01T03:52:38;94348.88;;;1.50;100.00
4415;BME280;2220;42.670;23.398;2023-02-01T03:55:06;94340.13;;;1.32;100.00
4415;BME280;2220;42.670;23.398;2023-02-01T03:57:35;94342.66;;;1.39;100.00
4415;BME280;2220;42.670;23.398;2023-02-01T04:00:06;94345.19;;;1.46;100.00
4415;BME280;2220;42.670;23.398;2023-02-01T04:02:33;94337.09;;;1.42;100.00
4415;BME280;2220;42.670;23.398;2023-02-01T04:04:58;94340.56;;;1.54;100.00
4415;BME280;2220;42.670;23.398;2023-02-01T04:07:24;94333.91;;;1.47;100.00
4415;BME280;2220;42.670;23.398;2023-02-01T04:09:49;94328.34;;;1.50;100.00
4415;BME280;2220;42.670;23.398;2023-02-01T04:12:15;94317.94;;;1.45;100.00
4415;BME280;2220;42.670;23.398;2023-02-01T04:14:40;94321.16;;;1.58;100.00
4415;BME280;2220;42.670;23.398;2023-02-01T04:17:05;94311.69;;;1.59;100.00
4415;BME280;2220;42.670;23.398;2023-02-01T04:19:31;94330.09;;;1.56;100.00
4415;BME280;2220;42.670;23.398;2023-02-01T04:21:56;94340.34;;;1.56;100.00
4415;BME280;2220;42.670;23.398;2023-02-01T04:24:22;94328.72;;;1.53;100.00
4415;BME280;2220;42.670;23.398;2023-02-01T04:26:47;94328.22;;;1.45;100.00
4415;BME280;2220;42.670;23.398;2023-02-01T04:29:13;94338.56;;;1.56;100.00
4415;BME280;2220;42.670;23.398;2023-02-01T04:31:38;94351.56;;;1.61;100.00
4415;BME280;2220;42.670;23.398;2023-02-01T04:34:03;94340.88;;;1.64;100.00
4415;BME280;2220;42.670;23.398;2023-02-01T04:36:29;94339.53;;;1.62;100.00
4415;BME280;2220;42.670;23.398;2023-02-01T04:38:54;94358.63;;;1.66;100.00
4415;BME280;2220;42.670;23.398;2023-02-01T04:41:20;94339.88;;;1.65;100.00
4415;BME280;2220;42.670;23.398;2023-02-01T04:43:48;94356.84;;;1.66;100.00
4415;BME280;2220;42.670;23.398;2023-02-01T04:46:14;94345.97;;;1.71;100.00
4415;BME280;2220;42.670;23.398;2023-02-01T04:48:40;94352.09;;;1.70;100.00
4415;BME280;2220;42.670;23.398;2023-02-01T04:51:05;94354.50;;;1.65;100.00
4415;BME280;2220;42.670;23.398;2023-02-01T04:53:31;94363.78;;;1.66;100.00
4415;BME280;2220;42.670;23.398;2023-02-01T04:55:57;94377.50;;;1.78;100.00
4415;BME280;2220;42.670;23.398;2023-02-01T04:58:22;94379.13;;;1.73;100.00
4415;BME280;2220;42.670;23.398;2023-02-01T05:00:48;94395.75;;;1.70;100.00
4415;BME280;2220;42.670;23.398;2023-02-01T05:03:15;94405.22;;;1.70;100.00
4415;BME280;2220;42.670;23.398;2023-02-01T05:05:41;94405.81;;;1.72;100.00
4415;BME280;2220;42.670;23.398;2023-02-01T05:08:07;94435.19;;;1.76;100.00
4415;BME280;2220;42.670;23.398;2023-02-01T05:10:33;94435.38;;;1.81;100.00
4415;BME280;2220;42.670;23.398;2023-02-01T05:12:58;94435.56;;;1.79;100.00
4415;BME280;2220;42.670;23.398;2023-02-01T05:15:42;94437.97;;;1.74;100.00
4415;BME280;2220;42.670;23.398;2023-02-01T05:18:07;94449.44;;;1.72;100.00
4415;BME280;2220;42.670;23.398;2023-02-01T05:20:33;94443.94;;;1.68;100.00
4415;BME280;2220;42.670;23.398;2023-02-01T05:22:59;94470.03;;;1.65;100.00
4415;BME280;2220;42.670;23.398;2023-02-01T05:25:24;94455.38;;;1.72;100.00
4415;BME280;2220;42.670;23.398;2023-02-01T05:27:50;94476.13;;;1.71;100.00
4415;BME280;2220;42.670;23.398;2023-02-01T05:30:15;94470.00;;;1.72;100.00
4415;BME280;2220;42.670;23.398;2023-02-01T05:32:41;94471.13;;;1.76;100.00
4415;BME280;2220;42.670;23.398;2023-02-01T05:35:07;94471.53;;;1.79;100.00
4415;BME280;2220;42.670;23.398;2023-02-01T05:37:32;94479.63;;;1.76;100.00
4415;BME280;2220;42.670;23.398;2023-02-01T05:39:58;94494.06;;;1.77;100.00
4415;BME280;2220;42.670;23.398;2023-02-01T05:42:23;94476.66;;;1.79;100.00
4415;BME280;2220;42.670;23.398;2023-02-01T05:44:49;94482.13;;;1.89;100.00
4415;BME280;2220;42.670;23.398;2023-02-01T05:47:14;94490.31;;;2.05;100.00
4415;BME280;2220;42.670;23.398;2023-02-01T05:49:40;94490.75;;;2.02;100.00
4415;BME280;2220;42.670;23.398;2023-02-01T05:52:05;94480.88;;;1.99;100.00
4415;BME280;2220;42.670;23.398;2023-02-01T05:54:31;94473.75;;;2.01;100.00
4415;BME280;2220;42.670;23.398;2023-02-01T05:56:56;94477.25;;;2.06;100.00
4415;BME280;2220;42.670;23.398;2023-02-01T05:59:22;94482.97;;;2.08;100.00
4415;BME280;2220;42.670;23.398;2023-02-01T06:01:47;94466.84;;;2.26;100.00
4415;BME280;2220;42.670;23.398;2023-02-01T06:04:13;94476.69;;;2.29;100.00
4415;BME280;2220;42.670;23.398;2023-02-01T06:06:38;94477.13;;;2.26;100.00
4415;BME280;2220;42.670;23.398;2023-02-01T06:09:03;94464.84;;;2.28;100.00
4415;BME280;2220;42.670;23.398;2023-02-01T06:11:29;94478.03;;;2.32;100.00
4415;BME280;2220;42.670;23.398;2023-02-01T06:13:55;94453.50;;;2.36;100.00
4415;BME280;2220;42.670;23.398;2023-02-01T06:16:21;94457.88;;;2.35;100.00
4415;BME280;2220;42.670;23.398;2023-02-01T06:18:48;94433.91;;;2.41;100.00
4415;BME280;2220;42.670;23.398;2023-02-01T06:21:14;94444.88;;;2.48;100.00
4415;BME280;2220;42.670;23.398;2023-02-01T06:23:52;94439.38;;;2.45;100.00
4415;BME280;2220;42.670;23.398;2023-02-01T06:26:18;94428.03;;;2.52;100.00
4415;BME280;2220;42.670;23.398;2023-02-01T06:28:43;94430.88;;;2.44;100.00
4415;BME280;2220;42.670;23.398;2023-02-01T06:31:09;94436.47;;;2.60;100.00
4415;BME280;2220;42.670;23.398;2023-02-01T06:33:35;94420.69;;;2.56;100.00
4415;BME280;2220;42.670;23.398;2023-02-01T06:36:02;94417.75;;;2.52;100.00
4415;BME280;2220;42.670;23.398;2023-02-01T06:38:29;94404.69;;;2.54;100.00
4415;BME280;2220;42.670;23.398;2023-02-01T06:40:56;94410.94;;;2.65;100.00
4415;BME280;2220;42.670;23.398;2023-02-01T06:43:25;94410.22;;;2.58;100.00
4415;BME280;2220;42.670;23.398;2023-02-01T06:45:51;94398.59;;;2.48;100.00
4415;BME280;2220;42.670;23.398;2023-02-01T06:48:18;94409.63;;;2.56;100.00
4415;BME280;2220;42.670;23.398;2023-02-01T06:50:43;94434.69;;;2.60;100.00
4415;BME280;2220;42.670;23.398;2023-02-01T06:53:09;94420.91;;;2.55;100.00
4415;BME280;2220;42.670;23.398;2023-02-01T06:55:35;94405.13;;;2.51;100.00
4415;BME280;2220;42.670;23.398;2023-02-01T06:58:00;94411.13;;;2.82;100.00
4415;BME280;2220;42.670;23.398;2023-02-01T07:00:27;94391.72;;;2.49;100.00
4415;BME280;2220;42.670;23.398;2023-02-01T07:02:53;94397.06;;;2.66;100.00
4415;BME280;2220;42.670;23.398;2023-02-01T07:05:18;94390.41;;;2.58;100.00
4415;BME280;2220;42.670;23.398;2023-02-01T07:07:44;94412.28;;;2.67;100.00
4415;BME280;2220;42.670;23.398;2023-02-01T07:10:10;94388.13;;;2.50;100.00
4415;BME280;2220;42.670;23.398;2023-02-01T07:12:35;94401.44;;;2.65;100.00
4415;BME280;2220;42.670;23.398;2023-02-01T07:15:02;94392.78;;;2.60;100.00
4415;BME280;2220;42.670;23.398;2023-02-01T07:17:28;94386.47;;;2.56;100.00
4415;BME280;2220;42.670;23.398;2023-02-01T07:19:55;94389.47;;;2.52;100.00
4415;BME280;2220;42.670;23.398;2023-02-01T07:22:20;94408.59;;;2.57;100.00
4415;BME280;2220;42.670;23.398;2023-02-01T07:24:46;94395.06;;;2.49;100.00
4415;BME280;2220;42.670;23.398;2023-02-01T07:27:11;94400.13;;;2.56;100.00
4415;BME280;2220;42.670;23.398;2023-02-01T07:29:37;94383.84;;;2.62;100.00
4415;BME280;2220;42.670;23.398;2023-02-01T07:32:02;94364.34;;;2.55;100.00
4415;BME280;2220;42.670;23.398;2023-02-01T07:34:28;94409.19;;;2.59;100.00
4415;BME280;2220;42.670;23.398;2023-02-01T07:36:54;94395.06;;;2.68;100.00
4415;BME280;2220;42.670;23.398;2023-02-01T07:39:19;94366.91;;;2.73;100.00
4415;BME280;2220;42.670;23.398;2023-02-01T07:41:45;94357.84;;;2.70;100.00
4415;BME280;2220;42.670;23.398;2023-02-01T07:44:11;94378.19;;;2.72;100.00
4415;BME280;2220;42.670;23.398;2023-02-01T07:46:36;94375.75;;;2.77;100.00
4415;BME280;2220;42.670;23.398;2023-02-01T07:49:03;94370.28;;;2.73;100.00
4415;BME280;2220;42.670;23.398;2023-02-01T07:51:29;94380.47;;;2.80;100.00
4415;BME280;2220;42.670;23.398;2023-02-01T07:53:54;94377.25;;;2.85;100.00
4415;BME280;2220;42.670;23.398;2023-02-01T07:56:20;94390.88;;;3.03;100.00
4415;BME280;2220;42.670;23.398;2023-02-01T07:58:52;94377.22;;;3.21;100.00
4415;BME280;2220;42.670;23.398;2023-02-01T08:01:22;94396.44;;;3.19;100.00
4415;BME280;2220;42.670;23.398;2023-02-01T08:06:19;94378.16;;;3.08;100.00
4415;BME280;2220;42.670;23.398;2023-02-01T08:08:46;94366.63;;;3.11;100.00
4415;BME280;2220;42.670;23.398;2023-02-01T08:11:12;94364.22;;;3.28;100.00
4415;BME280;2220;42.670;23.398;2023-02-01T08:13:38;94364.91;;;3.23;100.00
4415;BME280;2220;42.670;23.398;2023-02-01T08:16:06;94359.44;;;3.01;100.00
4415;BME280;2220;42.670;23.398;2023-02-01T08:18:33;94356.09;;;3.01;100.00
4415;BME280;2220;42.670;23.398;2023-02-01T08:21:06;94338.63;;;3.03;100.00
4415;BME280;2220;42.670;23.398;2023-02-01T08:23:34;94342.53;;;3.35;100.00
4415;BME280;2220;42.670;23.398;2023-02-01T08:26:15;94340.56;;;3.38;100.00
4415;BME280;2220;42.670;23.398;2023-02-01T08:28:44;94345.91;;;3.36;100.00
4415;BME280;2220;42.670;23.398;2023-02-01T08:31:12;94317.09;;;3.16;100.00
4415;BME280;2220;42.670;23.398;2023-02-01T08:33:40;94323.63;;;3.30;100.00
4415;BME280;2220;42.670;23.398;2023-02-01T08:36:07;94332.56;;;3.27;100.00
4415;BME280;2220;42.670;23.398;2023-02-01T08:38:38;94335.88;;;3.58;100.00
4415;BME280;2220;42.670;23.398;2023-02-01T08:41:09;94325.47;;;3.64;100.00
4415;BME280;2220;42.670;23.398;2023-02-01T08:43:35;94319.28;;;3.42;100.00
4415;BME280;2220;42.670;23.398;2023-02-01T08:46:01;94319.28;;;3.42;100.00
4415;BME280;2220;42.670;23.398;2023-02-01T08:48:27;94306.44;;;3.54;100.00
4415;BME280;2220;42.670;23.398;2023-02-01T08:50:52;94320.31;;;3.64;100.00
4415;BME280;2220;42.670;23.398;2023-02-01T08:53:18;94321.34;;;3.99;100.00
4415;BME280;2220;42.670;23.398;2023-02-01T08:55:45;94304.41;;;4.14;100.00
4415;BME280;2220;42.670;23.398;2023-02-01T08:58:12;94303.31;;;3.87;100.00
4415;BME280;2220;42.670;23.398;2023-02-01T09:00:39;94337.38;;;3.89;100.00
4415;BME280;2220;42.670;23.398;2023-02-01T09:03:05;94301.19;;;4.07;100.00
4415;BME280;2220;42.670;23.398;2023-02-01T09:05:30;94297.47;;;3.91;100.00
4415;BME280;2220;42.670;23.398;2023-02-01T09:07:56;94329.97;;;4.16;100.00
4415;BME280;2220;42.670;23.398;2023-02-01T09:10:21;94312.38;;;4.25;100.00
4415;BME280;2220;42.670;23.398;2023-02-01T09:12:47;94287.28;;;4.08;100.00
4415;BME280;2220;42.670;23.398;2023-02-01T09:15:12;94343.09;;;4.26;100.00
4415;BME280;2220;42.670;23.398;2023-02-01T09:17:38;94329.75;;;4.17;100.00
4415;BME280;2220;42.670;23.398;2023-02-01T09:20:04;94327.31;;;4.11;100.00
4415;BME280;2220;42.670;23.398;2023-02-01T09:22:29;94339.28;;;4.29;100.00
4415;BME280;2220;42.670;23.398;2023-02-01T09:24:55;94357.09;;;4.30;100.00
4415;BME280;2220;42.670;23.398;2023-02-01T09:27:21;94318.53;;;4.24;100.00
4415;BME280;2220;42.670;23.398;2023-02-01T09:29:46;94337.03;;;4.09;100.00
4415;BME280;2220;42.670;23.398;2023-02-01T09:32:18;94327.28;;;4.22;100.00
4415;BME280;2220;42.670;23.398;2023-02-01T09:34:43;94319.09;;;4.37;100.00
4415;BME280;2220;42.670;23.398;2023-02-01T09:37:09;94300.19;;;4.60;100.00
4415;BME280;2220;42.670;23.398;2023-02-01T09:39:34;94344.16;;;4.65;100.00
4415;BME280;2220;42.670;23.398;2023-02-01T09:45:05;94318.78;;;4.74;100.00
4415;BME280;2220;42.670;23.398;2023-02-01T09:47:23;94325.41;;;4.70;100.00
4415;BME280;2220;42.670;23.398;2023-02-01T09:50:00;94310.63;;;4.65;100.00
4415;BME280;2220;42.670;23.398;2023-02-01T09:55:51;94320.81;;;5.00;100.00
4415;BME280;2220;42.670;23.398;2023-02-01T09:58:33;94298.78;;;4.81;100.00
4415;BME280;2220;42.670;23.398;2023-02-01T10:01:02;94304.75;;;4.82;100.00
4415;BME280;2220;42.670;23.398;2023-02-01T10:03:30;94320.34;;;5.03;100.00
4415;BME280;2220;42.670;23.398;2023-02-01T10:06:04;94308.78;;;5.51;100.00
4415;BME280;2220;42.670;23.398;2023-02-01T10:14:31;94332.47;;;5.03;100.00
4415;BME280;2220;42.670;23.398;2023-02-01T10:17:08;94327.59;;;5.18;100.00
4415;BME280;2220;42.670;23.398;2023-02-01T10:19:48;94331.56;;;5.71;100.00
4415;BME280;2220;42.670;23.398;2023-02-01T10:25:28;94383.94;;;5.67;100.00
4415;BME280;2220;42.670;23.398;2023-02-01T10:27:56;94354.03;;;5.54;100.00
4415;BME280;2220;42.670;23.398;2023-02-01T10:30:25;94361.41;;;5.62;100.00
4415;BME280;2220;42.670;23.398;2023-02-01T10:33:19;94361.31;;;5.57;100.00
4415;BME280;2220;42.670;23.398;2023-02-01T10:35:45;94350.34;;;5.67;100.00
4415;BME280;2220;42.670;23.398;2023-02-01T10:38:28;94350.31;;;5.33;100.00
4415;BME280;2220;42.670;23.398;2023-02-01T10:40:59;94361.09;;;5.75;100.00
4415;BME280;2220;42.670;23.398;2023-02-01T10:43:25;94356.63;;;5.87;100.00
4415;BME280;2220;42.670;23.398;2023-02-01T10:45:51;94373.56;;;5.78;100.00
4415;BME280;2220;42.670;23.398;2023-02-01T10:48:16;94368.13;;;5.63;100.00
4415;BME280;2220;42.670;23.398;2023-02-01T10:51:02;94376.81;;;6.02;100.00
4415;BME280;2220;42.670;23.398;2023-02-01T10:53:44;94381.66;;;5.99;100.00
4415;BME280;2220;42.670;23.398;2023-02-01T10:56:13;94390.16;;;5.82;100.00
4415;BME280;2220;42.670;23.398;2023-02-01T10:58:46;94384.47;;;6.14;100.00
4415;BME280;2220;42.670;23.398;2023-02-01T11:01:31;94422.69;;;5.67;100.00
4415;BME280;2220;42.670;23.398;2023-02-01T11:04:00;94399.44;;;5.95;100.00
4415;BME280;2220;42.670;23.398;2023-02-01T11:06:53;94411.66;;;6.16;100.00
4415;BME280;2220;42.670;23.398;2023-02-01T11:09:22;94437.34;;;6.23;100.00
4415;BME280;2220;42.670;23.398;2023-02-01T11:14:15;94466.75;;;5.88;100.00
4415;BME280;2220;42.670;23.398;2023-02-01T11:16:47;94499.72;;;5.81;100.00
4415;BME280;2220;42.670;23.398;2023-02-01T11:19:15;94506.09;;;5.62;100.00
4415;BME280;2220;42.670;23.398;2023-02-01T11:21:54;94489.03;;;5.49;100.00
4415;BME280;2220;42.670;23.398;2023-02-01T11:24:25;94463.38;;;5.31;100.00
4415;BME280;2220;42.670;23.398;2023-02-01T11:26:57;94475.22;;;5.55;100.00
4415;BME280;2220;42.670;23.398;2023-02-01T11:29:29;94498.34;;;5.91;100.00
4415;BME280;2220;42.670;23.398;2023-02-01T11:32:01;94518.91;;;5.85;100.00
4415;BME280;2220;42.670;23.398;2023-02-01T11:34:35;94511.94;;;5.57;100.00
4415;BME280;2220;42.670;23.398;2023-02-01T11:37:02;94499.06;;;5.74;100.00
4415;BME280;2220;42.670;23.398;2023-02-01T11:39:31;94485.56;;;6.12;100.00
4415;BME280;2220;42.670;23.398;2023-02-01T11:42:17;94518.44;;;6.17;100.00
4415;BME280;2220;42.670;23.398;2023-02-01T11:44:44;94566.25;;;5.86;100.00
4415;BME280;2220;42.670;23.398;2023-02-01T11:49:50;94625.06;;;6.19;100.00
4415;BME280;2220;42.670;23.398;2023-02-01T12:04:00;94760.56;;;6.18;100.00
4415;BME280;2220;42.670;23.398;2023-02-01T12:25:45;94880.75;;;6.04;100.00
4415;BME280;2220;42.670;23.398;2023-02-01T12:31:39;94891.97;;;5.98;100.00
4415;BME280;2220;42.670;23.398;2023-02-01T12:39:32;94907.28;;;6.46;100.00
4415;BME280;2220;42.670;23.398;2023-02-01T12:44:41;94952.97;;;6.52;100.00
4415;BME280;2220;42.670;23.398;2023-02-01T12:47:16;94935.06;;;6.39;100.00
4415;BME280;2220;42.670;23.398;2023-02-01T12:49:59;94920.69;;;6.43;100.00
4415;BME280;2220;42.670;23.398;2023-02-01T12:52:58;94929.13;;;6.38;100.00
4415;BME280;2220;42.670;23.398;2023-02-01T12:55:36;94980.09;;;6.61;100.00
4415;BME280;2220;42.670;23.398;2023-02-01T12:58:14;94973.25;;;6.67;100.00
4415;BME280;2220;42.670;23.398;2023-02-01T13:01:06;95001.72;;;6.79;100.00
4415;BME280;2220;42.670;23.398;2023-02-01T13:03:52;94993.72;;;6.92;100.00
4415;BME280;2220;42.670;23.398;2023-02-01T13:06:43;94988.00;;;6.90;100.00
4415;BME280;2220;42.670;23.398;2023-02-01T13:09:09;95056.19;;;6.84;100.00
4415;BME280;2220;42.670;23.398;2023-02-01T13:11:42;94967.03;;;6.80;100.00
4415;BME280;2220;42.670;23.398;2023-02-01T13:14:28;94906.38;;;6.64;100.00
4415;BME280;2220;42.670;23.398;2023-02-01T13:17:11;94888.19;;;6.59;100.00
4415;BME280;2220;42.670;23.398;2023-02-01T13:19:49;94875.91;;;6.66;100.00
4415;BME280;2220;42.670;23.398;2023-02-01T13:22:27;94890.97;;;6.57;100.00
4415;BME280;2220;42.670;23.398;2023-02-01T13:25:13;94894.13;;;6.83;100.00
4415;BME280;2220;42.670;23.398;2023-02-01T13:27:42;94884.84;;;6.87;100.00
4415;BME280;2220;42.670;23.398;2023-02-01T13:30:15;94896.69;;;6.83;100.00
4415;BME280;2220;42.670;23.398;2023-02-01T13:33:08;94895.22;;;6.98;100.00
4415;BME280;2220;42.670;23.398;2023-02-01T13:43:56;94948.34;;;6.54;96.58
4415;BME280;2220;42.670;23.398;2023-02-01T13:46:24;94960.41;;;6.60;96.57
4415;BME280;2220;42.670;23.398;2023-02-01T13:48:52;94957.38;;;6.75;96.51
4415;BME280;2220;42.670;23.398;2023-02-01T13:51:33;94981.22;;;6.77;95.19
4415;BME280;2220;42.670;23.398;2023-02-01T13:54:00;94954.50;;;7.12;92.99
4415;BME280;2220;42.670;23.398;2023-02-01T13:56:27;94958.19;;;7.27;92.44
4415;BME280;2220;42.670;23.398;2023-02-01T13:58:52;95004.59;;;7.29;91.22
4415;BME280;2220;42.670;23.398;2023-02-01T14:03:48;94974.56;;;7.16;89.60
4415;BME280;2220;42.670;23.398;2023-02-01T14:19:30;94949.25;;;7.07;89.22
4415;BME280;2220;42.670;23.398;2023-02-01T14:24:50;94956.81;;;6.85;88.79
4415;BME280;2220;42.670;23.398;2023-02-01T14:27:21;94960.50;;;6.65;89.31
4415;BME280;2220;42.670;23.398;2023-02-01T14:29:58;94963.56;;;6.86;90.01
4415;BME280;2220;42.670;23.398;2023-02-01T14:32:35;94918.31;;;6.77;89.71
4415;BME280;2220;42.670;23.398;2023-02-01T14:35:06;94947.88;;;7.16;89.27
4415;BME280;2220;42.670;23.398;2023-02-01T14:37:35;94936.28;;;7.47;87.14
4415;BME280;2220;42.670;23.398;2023-02-01T14:42:43;94918.47;;;7.22;88.12
4415;BME280;2220;42.670;23.398;2023-02-01T15:01:32;94939.34;;;6.33;93.85
4415;BME280;2220;42.670;23.398;2023-02-01T15:09:23;94945.28;;;6.22;95.04
4415;BME280;2220;42.670;23.398;2023-02-01T15:12:15;94941.50;;;6.36;95.36
4415;BME280;2220;42.670;23.398;2023-02-01T15:15:13;94923.72;;;6.28;95.10
4415;BME280;2220;42.670;23.398;2023-02-01T15:17:39;94959.66;;;6.06;96.18
4415;BME280;2220;42.670;23.398;2023-02-01T15:20:17;94919.34;;;5.87;97.91
4415;BME280;2220;42.670;23.398;2023-02-01T15:23:04;94927.38;;;5.97;98.30
4415;BME280;2220;42.670;23.398;2023-02-01T15:25:34;94927.53;;;5.84;99.28
4415;BME280;2220;42.670;23.398;2023-02-01T15:28:04;94921.56;;;6.02;97.94
4415;BME280;2220;42.670;23.398;2023-02-01T15:30:33;94937.84;;;6.14;97.96
4415;BME280;2220;42.670;23.398;2023-02-01T15:46:29;94940.31;;;5.97;95.10
4415;BME280;2220;42.670;23.398;2023-02-01T15:48:55;94933.28;;;5.86;95.51
4415;BME280;2220;42.670;23.398;2023-02-01T15:51:23;94942.66;;;5.99;95.20
4415;BME280;2220;42.670;23.398;2023-02-01T15:54:03;94939.00;;;5.88;96.01
4415;BME280;2220;42.670;23.398;2023-02-01T15:56:34;94938.75;;;6.08;95.34
4415;BME280;2220;42.670;23.398;2023-02-01T15:59:04;94943.03;;;6.14;95.37
4415;BME280;2220;42.670;23.398;2023-02-01T16:01:36;94940.88;;;5.99;94.88
4415;BME280;2220;42.670;23.398;2023-02-01T16:04:14;94951.16;;;5.87;95.85
4415;BME280;2220;42.670;23.398;2023-02-01T16:06:52;94936.53;;;5.81;95.93
4415;BME280;2220;42.670;23.398;2023-02-01T16:09:48;94956.38;;;5.99;94.97
4415;BME280;2220;42.670;23.398;2023-02-01T16:12:46;94954.25;;;6.08;93.63
4415;BME280;2220;42.670;23.398;2023-02-01T16:15:15;94966.63;;;6.06;93.40
4415;BME280;2220;42.670;23.398;2023-02-01T16:17:40;94960.91;;;6.04;93.37